Time;durP1;ratioP1;P1;durP2;ratioP2;P2;SDS_P1;SDS_P2;PMS_P1;PMS_P2;Temp;Humidity;BMP_temperature;BMP_pressure;BME280_temperature;BME280_humidity;BME280_pressure;Samples;Min_cycle;Max_cycle;Signal;HPM_P1;HPM_P2
2022/06/12 00:02:17;;;;;;;1.40;1.10;;;;;;;;;;5031777;28;20103;-39
2022/06/12 00:04:43;;;;;;;2.15;1.55;;;;;;;;;;5031779;28;20042;-40
2022/06/12 00:07:08;;;;;;;1.30;1.20;;;;;;;;;;5032077;28;20710;-39
2022/06/12 00:09:34;;;;;;;1.40;1.10;;;;;;;;;;5031768;28;20068;-39
2022/06/12 00:11:59;;;;;;;2.38;1.27;;;;;;;;;;5014159;28;20037;-39
2022/06/12 00:14:25;;;;;;;4.35;1.20;;;;;;;;;;5031579;28;20018;-39
2022/06/12 00:16:52;;;;;;;2.63;1.45;;;;;;;;;;5031680;28;20514;-39
2022/06/12 00:19:18;;;;;;;1.27;1.10;;;;;;;;;;5031545;28;20040;-39
2022/06/12 00:21:43;;;;;;;2.28;1.40;;;;;;;;;;5031891;28;20033;-39
2022/06/12 00:24:10;;;;;;;1.38;1.27;;;;;;;;;;5031514;28;20052;-40
2022/06/12 00:26:37;;;;;;;1.48;1.35;;;;;;;;;;5031720;28;20017;-39
2022/06/12 00:29:06;;;;;;;2.85;1.15;;;;;;;;;;5031546;28;20464;-39
2022/06/12 00:31:34;;;;;;;2.42;1.88;;;;;;;;;;5031475;28;20033;-39
2022/06/12 00:34:01;;;;;;;2.85;1.75;;;;;;;;;;5031671;28;20112;-39
2022/06/12 00:36:27;;;;;;;1.60;1.50;;;;;;;;;;5031415;28;20026;-39
2022/06/12 00:38:52;;;;;;;2.40;1.30;;;;;;;;;;5031582;28;20116;-43
2022/06/12 00:41:18;;;;;;;1.55;1.33;;;;;;;;;;5031576;28;20388;-39
2022/06/12 00:43:43;;;;;;;1.65;1.30;;;;;;;;;;5031570;28;20357;-40
2022/06/12 00:46:28;;;;;;;1.70;1.60;;;;;;;;;;5031614;28;20033;-39
2022/06/12 00:48:54;;;;;;;1.45;1.27;;;;;;;;;;5031146;28;20064;-39
2022/06/12 00:51:21;;;;;;;2.72;1.30;;;;;;;;;;5031197;28;20072;-39
2022/06/12 00:53:49;;;;;;;1.40;1.30;;;;;;;;;;5031478;28;20373;-39
2022/06/12 00:56:19;;;;;;;1.23;1.13;;;;;;;;;;5031041;28;20022;-39
2022/06/12 00:58:47;;;;;;;1.48;1.30;;;;;;;;;;5031468;28;20121;-39
2022/06/12 01:01:18;;;;;;;1.65;1.50;;;;;;;;;;5031152;28;20083;-39
2022/06/12 01:06:33;;;;;;;1.52;1.42;;;;;;;;;;5031097;28;20108;-39
2022/06/12 01:09:00;;;;;;;1.75;1.20;;;;;;;;;;5031079;28;20029;-40
2022/06/12 01:11:26;;;;;;;1.65;1.40;;;;;;;;;;5031237;28;20021;-39
2022/06/12 01:13:51;;;;;;;4.38;1.52;;;;;;;;;;5013272;28;20460;-39
2022/06/12 01:16:18;;;;;;;1.77;1.30;;;;;;;;;;5030882;28;20033;-39
2022/06/12 01:18:48;;;;;;;1.20;1.10;;;;;;;;;;5031290;28;20482;-39
2022/06/12 01:21:16;;;;;;;3.25;1.90;;;;;;;;;;5031054;28;20021;-40
2022/06/12 01:24:01;;;;;;;3.65;1.88;;;;;;;;;;5031051;28;20036;-39
2022/06/12 01:26:45;;;;;;;1.48;1.20;;;;;;;;;;5031495;28;20037;-39
2022/06/12 01:29:33;;;;;;;1.80;1.70;;;;;;;;;;5034902;28;20430;-39
2022/06/12 01:32:03;;;;;;;2.97;1.67;;;;;;;;;;5034743;28;20054;-39
2022/06/12 01:34:38;;;;;;;2.25;1.60;;;;;;;;;;5033288;28;20033;-40
2022/06/12 01:37:21;;;;;;;2.35;1.30;;;;;;;;;;5034597;28;20038;-40
2022/06/12 01:39:47;;;;;;;1.70;1.58;;;;;;;;;;5034617;28;20033;-40
2022/06/12 01:42:28;;;;;;;2.33;1.50;;;;;;;;;;5034607;28;20063;-39
2022/06/12 01:45:02;;;;;;;1.83;1.60;;;;;;;;;;5034438;28;20814;-39
2022/06/12 01:47:34;;;;;;;2.08;1.30;;;;;;;;;;5034455;28;20040;-39
2022/06/12 01:50:19;;;;;;;1.48;1.38;;;;;;;;;;5034405;28;20037;-39
2022/06/12 01:52:45;;;;;;;2.33;1.60;;;;;;;;;;5033886;28;20637;-40
2022/06/12 01:55:14;;;;;;;4.80;1.58;;;;;;;;;;5034271;28;20028;-39
2022/06/12 01:57:50;;;;;;;2.78;1.60;;;;;;;;;;5034161;28;20037;-39
2022/06/12 02:00:18;;;;;;;1.88;1.77;;;;;;;;;;5034406;28;20036;-39
2022/06/12 02:02:53;;;;;;;1.40;1.30;;;;;;;;;;5034242;28;20013;-40
2022/06/12 02:05:25;;;;;;;1.40;1.27;;;;;;;;;;5034016;28;20045;-39
2022/06/12 02:07:50;;;;;;;1.60;1.38;;;;;;;;;;5034314;28;20404;-39
2022/06/12 02:10:16;;;;;;;1.58;1.45;;;;;;;;;;5034220;28;20033;-39
2022/06/12 02:15:46;;;;;;;2.33;1.50;;;;;;;;;;5034025;28;20041;-39
2022/06/12 02:18:11;;;;;;;3.28;1.60;;;;;;;;;;5034095;28;20046;-39
2022/06/12 02:20:40;;;;;;;1.73;1.27;;;;;;;;;;5034025;28;20665;-39
2022/06/12 02:23:08;;;;;;;1.42;1.33;;;;;;;;;;5033810;28;20041;-39
2022/06/12 02:25:36;;;;;;;1.45;1.27;;;;;;;;;;5033651;28;20100;-39
2022/06/12 02:28:06;;;;;;;1.40;1.30;;;;;;;;;;5034011;28;20037;-39
2022/06/12 02:30:38;;;;;;;2.17;1.83;;;;;;;;;;5033541;28;20057;-39
2022/06/12 02:33:11;;;;;;;1.33;1.23;;;;;;;;;;5033946;28;20029;-39
2022/06/12 02:35:42;;;;;;;2.28;1.42;;;;;;;;;;5033732;28;20033;-39
2022/06/12 02:38:11;;;;;;;3.38;1.48;;;;;;;;;;5032341;28;20064;-39
2022/06/12 02:40:38;;;;;;;1.67;1.40;;;;;;;;;;5033485;28;20040;-39
2022/06/12 02:43:07;;;;;;;1.38;1.27;;;;;;;;;;5033427;28;20057;-39
2022/06/12 02:45:33;;;;;;;1.63;1.33;;;;;;;;;;5033250;28;20496;-39
2022/06/12 02:48:00;;;;;;;3.38;1.60;;;;;;;;;;5033346;28;20087;-40
2022/06/12 02:50:27;;;;;;;7.53;1.75;;;;;;;;;;5033541;28;20083;-40
2022/06/12 02:52:56;;;;;;;6.30;2.08;;;;;;;;;;5033567;28;20087;-39
2022/06/12 02:55:47;;;;;;;1.80;1.52;;;;;;;;;;5033413;28;20422;-39
2022/06/12 02:58:13;;;;;;;2.22;1.70;;;;;;;;;;5013276;28;20496;-39
2022/06/12 03:00:38;;;;;;;1.40;1.30;;;;;;;;;;5033071;28;20049;-40
2022/06/12 03:03:10;;;;;;;5.32;1.27;;;;;;;;;;5033035;28;20511;-39
2022/06/12 03:05:37;;;;;;;13.55;2.10;;;;;;;;;;5032719;28;20041;-39
2022/06/12 03:08:08;;;;;;;1.40;1.30;;;;;;;;;;5032912;28;20124;-39
2022/06/12 03:10:37;;;;;;;3.72;1.30;;;;;;;;;;5032850;28;20052;-41
2022/06/12 03:13:05;;;;;;;1.67;1.58;;;;;;;;;;5032928;28;20476;-39
2022/06/12 03:15:43;;;;;;;1.88;1.38;;;;;;;;;;5032649;28;20021;-39
2022/06/12 03:18:11;;;;;;;1.55;1.33;;;;;;;;;;5032665;28;20041;-39
2022/06/12 03:20:54;;;;;;;2.28;1.80;;;;;;;;;;5032857;28;20388;-39
2022/06/12 03:23:38;;;;;;;3.35;1.83;;;;;;;;;;5032621;28;20510;-39
2022/06/12 03:26:07;;;;;;;2.88;1.30;;;;;;;;;;5032564;28;20476;-39
2022/06/12 03:28:35;;;;;;;1.30;1.20;;;;;;;;;;5032748;28;20022;-39
2022/06/12 03:31:12;;;;;;;5.15;1.40;;;;;;;;;;5032512;28;20037;-39
2022/06/12 03:33:50;;;;;;;1.73;1.10;;;;;;;;;;5032589;28;20372;-39
2022/06/12 03:36:22;;;;;;;1.40;1.30;;;;;;;;;;5032371;28;20033;-39
2022/06/12 03:38:52;;;;;;;3.40;1.40;;;;;;;;;;5032317;28;20458;-39
2022/06/12 03:41:22;;;;;;;2.10;1.83;;;;;;;;;;5032602;28;20052;-39
2022/06/12 03:43:59;;;;;;;1.30;1.17;;;;;;;;;;5032204;28;20036;-39
2022/06/12 03:46:34;;;;;;;1.45;1.35;;;;;;;;;;5032384;28;20033;-39
2022/06/12 03:49:26;;;;;;;2.20;1.52;;;;;;;;;;5032257;28;20033;-39
2022/06/12 03:52:04;;;;;;;1.52;1.20;;;;;;;;;;5032409;28;20095;-39
2022/06/12 03:54:40;;;;;;;1.60;1.50;;;;;;;;;;5032166;28;20480;-39
2022/06/12 03:59:55;;;;;;;1.70;1.38;;;;;;;;;;5032063;28;20480;-39
2022/06/12 04:02:22;;;;;;;1.27;1.17;;;;;;;;;;5031857;28;20479;-39
2022/06/12 04:04:48;;;;;;;1.40;1.17;;;;;;;;;;5014119;28;20056;-39
2022/06/12 04:07:15;;;;;;;1.95;1.27;;;;;;;;;;5031806;28;20025;-40
2022/06/12 04:09:43;;;;;;;1.92;1.75;;;;;;;;;;5031986;28;20079;-39
2022/06/12 04:12:10;;;;;;;3.08;1.50;;;;;;;;;;5031748;28;20468;-39
2022/06/12 04:14:43;;;;;;;2.25;1.80;;;;;;;;;;5031825;28;20099;-39
2022/06/12 04:17:09;;;;;;;2.22;1.58;;;;;;;;;;5031655;28;20041;-39
2022/06/12 04:19:58;;;;;;;2.28;1.95;;;;;;;;;;5031798;28;20027;-39
2022/06/12 04:22:21;;;;;;;1.77;1.55;;;;;;;;;;5031480;28;20025;-39
2022/06/12 04:24:50;;;;;;;1.35;1.20;;;;;;;;;;5031567;28;20475;-39
2022/06/12 04:27:27;;;;;;;1.40;1.30;;;;;;;;;;5031590;28;20484;-39
2022/06/12 04:29:54;;;;;;;1.67;1.33;;;;;;;;;;5031734;28;20041;-39
2022/06/12 04:32:21;;;;;;;6.63;1.30;;;;;;;;;;5031481;28;20502;-39
2022/06/12 04:34:46;;;;;;;2.10;1.70;;;;;;;;;;5031469;28;20030;-39
2022/06/12 04:37:14;;;;;;;1.90;1.60;;;;;;;;;;5031323;28;20033;-39
2022/06/12 04:39:39;;;;;;;1.63;1.52;;;;;;;;;;5031295;28;20498;-39
2022/06/12 04:42:05;;;;;;;2.30;1.38;;;;;;;;;;5031652;28;20017;-39
2022/06/12 04:44:31;;;;;;;1.88;1.40;;;;;;;;;;5031234;28;20036;-39
2022/06/12 04:46:57;;;;;;;2.00;1.83;;;;;;;;;;5031333;28;20388;-39
2022/06/12 04:49:24;;;;;;;2.22;1.15;;;;;;;;;;5031538;28;20029;-39
2022/06/12 04:51:50;;;;;;;2.03;1.30;;;;;;;;;;5031288;28;20071;-40
2022/06/12 04:54:16;;;;;;;1.73;1.63;;;;;;;;;;5031113;28;20611;-40
2022/06/12 04:56:41;;;;;;;1.42;1.33;;;;;;;;;;5031133;28;20035;-39
2022/06/12 04:59:07;;;;;;;1.40;1.30;;;;;;;;;;5031178;28;20459;-39
2022/06/12 05:01:33;;;;;;;3.30;1.63;;;;;;;;;;5031941;28;20017;-39
2022/06/12 05:04:00;;;;;;;1.75;1.42;;;;;;;;;;5035073;28;20049;-39
2022/06/12 05:06:26;;;;;;;1.52;1.42;;;;;;;;;;5035216;28;20501;-39
2022/06/12 05:08:52;;;;;;;4.88;1.52;;;;;;;;;;5035140;28;20029;-39
2022/06/12 05:11:18;;;;;;;2.10;1.90;;;;;;;;;;5035287;28;20393;-40
2022/06/12 05:13:44;;;;;;;2.17;1.50;;;;;;;;;;5033776;28;20029;-39
2022/06/12 05:16:17;;;;;;;5.90;1.48;;;;;;;;;;5035022;28;20013;-39
2022/06/12 05:18:42;;;;;;;2.35;1.83;;;;;;;;;;5034789;28;20049;-39
2022/06/12 05:21:08;;;;;;;4.32;1.50;;;;;;;;;;5035288;28;20172;-39
2022/06/12 05:23:34;;;;;;;1.40;1.30;;;;;;;;;;5034772;28;20107;-39
2022/06/12 05:26:01;;;;;;;2.33;1.52;;;;;;;;;;5034812;28;20353;-39
2022/06/12 05:28:27;;;;;;;1.80;1.50;;;;;;;;;;5035006;28;20033;-39
2022/06/12 05:30:53;;;;;;;1.98;1.40;;;;;;;;;;5034756;28;20082;-39
2022/06/12 05:33:18;;;;;;;1.92;1.40;;;;;;;;;;5034663;28;20512;-39
2022/06/12 05:35:44;;;;;;;1.80;1.70;;;;;;;;;;5034740;28;20021;-40
2022/06/12 05:38:11;;;;;;;1.73;1.63;;;;;;;;;;5034608;28;20068;-39
2022/06/12 05:40:38;;;;;;;1.40;1.30;;;;;;;;;;5034478;28;20018;-39
2022/06/12 05:43:04;;;;;;;1.92;1.27;;;;;;;;;;5034850;28;20025;-39
2022/06/12 05:45:30;;;;;;;1.30;1.20;;;;;;;;;;5034383;28;20678;-39
2022/06/12 05:48:02;;;;;;;1.88;1.65;;;;;;;;;;5034711;28;20116;-39
2022/06/12 05:50:31;;;;;;;1.35;1.25;;;;;;;;;;5034413;28;20395;-39
2022/06/12 05:52:58;;;;;;;2.30;1.90;;;;;;;;;;5034646;28;20357;-39
2022/06/12 05:55:24;;;;;;;1.40;1.17;;;;;;;;;;5034428;28;20039;-39
2022/06/12 05:57:52;;;;;;;1.80;1.70;;;;;;;;;;5034263;28;20391;-39
2022/06/12 06:00:23;;;;;;;2.72;1.88;;;;;;;;;;5034516;28;20069;-43
2022/06/12 06:02:48;;;;;;;1.85;1.20;;;;;;;;;;5034169;28;20044;-39
2022/06/12 06:05:14;;;;;;;1.95;1.45;;;;;;;;;;5012986;28;20045;-40
2022/06/12 06:07:40;;;;;;;1.63;1.20;;;;;;;;;;5014297;28;20032;-39
2022/06/12 06:10:07;;;;;;;1.73;1.27;;;;;;;;;;5014379;28;20025;-39
2022/06/12 06:12:33;;;;;;;1.73;1.63;;;;;;;;;;5013953;28;20030;-40
2022/06/12 06:14:58;;;;;;;1.35;1.25;;;;;;;;;;5014451;28;20116;-39
2022/06/12 06:17:24;;;;;;;1.55;1.45;;;;;;;;;;5013947;28;20060;-39
2022/06/12 06:19:50;;;;;;;1.67;1.20;;;;;;;;;;5014412;28;20026;-40
2022/06/12 06:22:18;;;;;;;1.42;1.33;;;;;;;;;;5014064;28;20030;-39
2022/06/12 06:24:52;;;;;;;1.98;1.38;;;;;;;;;;5014180;28;20022;-39
2022/06/12 06:27:18;;;;;;;1.98;1.50;;;;;;;;;;5014086;28;20057;-39
2022/06/12 06:29:44;;;;;;;1.90;1.20;;;;;;;;;;5014102;28;20405;-39
2022/06/12 06:32:11;;;;;;;2.00;1.30;;;;;;;;;;5013945;28;20037;-39
2022/06/12 06:34:37;;;;;;;3.33;1.52;;;;;;;;;;5014044;28;20049;-39
2022/06/12 06:37:04;;;;;;;1.60;1.50;;;;;;;;;;5013966;28;20073;-39
2022/06/12 06:39:30;;;;;;;1.77;1.63;;;;;;;;;;5014023;28;20072;-39
2022/06/12 06:41:56;;;;;;;1.42;1.05;;;;;;;;;;5013775;28;20384;-39
2022/06/12 06:47:07;;;;;;;4.40;1.63;;;;;;;;;;5013703;28;20029;-39
2022/06/12 06:49:32;;;;;;;1.58;1.30;;;;;;;;;;5013526;28;20022;-40
2022/06/12 06:51:58;;;;;;;1.42;1.00;;;;;;;;;;5013789;28;20030;-40
2022/06/12 06:54:25;;;;;;;1.35;1.10;;;;;;;;;;5013638;28;20033;-39
2022/06/12 06:56:51;;;;;;;3.33;1.60;;;;;;;;;;5013488;28;20034;-39
2022/06/12 06:59:16;;;;;;;2.53;1.25;;;;;;;;;;5013318;28;20084;-39
2022/06/12 07:01:42;;;;;;;5.43;1.42;;;;;;;;;;5013566;28;20054;-39
2022/06/12 07:04:08;;;;;;;1.33;1.23;;;;;;;;;;5020544;28;20528;-39
2022/06/12 07:06:34;;;;;;;1.40;0.95;;;;;;;;;;5032938;28;20036;-39
2022/06/12 07:08:59;;;;;;;1.65;1.27;;;;;;;;;;5033076;28;20021;-39
2022/06/12 07:11:26;;;;;;;2.33;1.10;;;;;;;;;;5032856;28;20076;-39
2022/06/12 07:13:52;;;;;;;1.42;1.33;;;;;;;;;;5032891;28;20025;-39
2022/06/12 07:16:19;;;;;;;1.30;1.20;;;;;;;;;;5032839;28;20562;-39
2022/06/12 07:18:44;;;;;;;1.80;1.15;;;;;;;;;;5032638;28;20033;-40
2022/06/12 07:21:10;;;;;;;3.08;1.63;;;;;;;;;;5032686;28;20036;-40
2022/06/12 07:23:36;;;;;;;1.25;1.15;;;;;;;;;;5032454;28;20048;-39
2022/06/12 07:26:05;;;;;;;1.23;1.02;;;;;;;;;;5032156;28;20079;-39
2022/06/12 07:28:34;;;;;;;1.02;1.00;;;;;;;;;;5032503;28;20479;-39
2022/06/12 07:31:00;;;;;;;1.42;1.17;;;;;;;;;;5032655;28;20029;-39
2022/06/12 07:33:26;;;;;;;1.27;1.17;;;;;;;;;;5032267;28;20379;-39
2022/06/12 07:35:52;;;;;;;2.78;1.13;;;;;;;;;;5032635;28;20036;-39
2022/06/12 07:38:19;;;;;;;1.10;0.93;;;;;;;;;;5032324;28;20041;-39
2022/06/12 07:40:47;;;;;;;1.92;1.13;;;;;;;;;;5032237;28;20037;-39
2022/06/12 07:43:12;;;;;;;1.63;1.10;;;;;;;;;;5032235;28;20034;-39
2022/06/12 07:45:39;;;;;;;1.67;1.05;;;;;;;;;;5032465;28;20040;-39
2022/06/12 07:48:05;;;;;;;4.65;1.48;;;;;;;;;;5032185;28;20021;-39
2022/06/12 07:50:30;;;;;;;2.75;1.55;;;;;;;;;;5014584;28;20029;-39
2022/06/12 07:52:58;;;;;;;1.25;1.15;;;;;;;;;;5032135;28;20431;-39
2022/06/12 07:55:24;;;;;;;1.83;1.25;;;;;;;;;;5031969;28;20495;-39
2022/06/12 07:57:50;;;;;;;1.88;1.42;;;;;;;;;;5032028;28;20033;-40
2022/06/12 08:00:16;;;;;;;1.23;1.13;;;;;;;;;;5032059;28;20083;-39
2022/06/12 08:02:43;;;;;;;2.90;1.35;;;;;;;;;;5031747;28;20539;-39
2022/06/12 08:05:10;;;;;;;2.15;1.15;;;;;;;;;;5031748;28;20049;-39
2022/06/12 08:07:35;;;;;;;0.85;0.70;;;;;;;;;;5031799;28;20029;-39
2022/06/12 08:10:03;;;;;;;1.25;1.15;;;;;;;;;;5032066;28;20022;-37
2022/06/12 08:12:31;;;;;;;1.10;1.00;;;;;;;;;;5031642;28;20518;-37
2022/06/12 08:14:56;;;;;;;1.95;1.25;;;;;;;;;;5031730;28;20060;-36
2022/06/12 08:17:22;;;;;;;1.50;1.40;;;;;;;;;;5031460;28;20103;-37
2022/06/12 08:22:32;;;;;;;1.55;1.05;;;;;;;;;;5031594;28;20030;-40
2022/06/12 08:24:59;;;;;;;3.90;0.95;;;;;;;;;;5031602;28;20053;-39
2022/06/12 08:27:25;;;;;;;1.20;1.10;;;;;;;;;;5031670;28;20112;-40
2022/06/12 08:29:51;;;;;;;1.35;1.00;;;;;;;;;;5031740;28;20029;-40
2022/06/12 08:32:19;;;;;;;2.35;1.02;;;;;;;;;;5031442;28;20030;-39
2022/06/12 08:34:48;;;;;;;2.08;1.33;;;;;;;;;;5013718;28;20027;-39
2022/06/12 08:37:17;;;;;;;3.70;1.10;;;;;;;;;;5030442;28;20034;-39
2022/06/12 08:39:43;;;;;;;1.48;1.35;;;;;;;;;;5031206;28;20486;-40
2022/06/12 08:42:25;;;;;;;1.40;0.95;;;;;;;;;;5031461;28;20043;-39
2022/06/12 08:44:58;;;;;;;2.75;1.23;;;;;;;;;;5031401;28;20037;-39
2022/06/12 08:47:33;;;;;;;4.63;1.17;;;;;;;;;;5031201;28;20039;-39
2022/06/12 08:49:59;;;;;;;0.95;0.85;;;;;;;;;;5031294;28;20729;-39
2022/06/12 08:52:33;;;;;;;1.52;0.95;;;;;;;;;;5031162;28;20013;-39
2022/06/12 08:55:06;;;;;;;1.58;0.98;;;;;;;;;;5031259;28;20112;-39
2022/06/12 08:57:48;;;;;;;1.30;1.02;;;;;;;;;;5031039;28;20064;-39
2022/06/12 09:00:15;;;;;;;2.93;1.37;;;;;;;;;;5031285;28;20028;-39
2022/06/12 09:02:43;;;;;;;1.80;1.20;;;;;;;;;;5031185;28;20372;-39
2022/06/12 09:05:11;;;;;;;1.17;0.98;;;;;;;;;;5013243;28;20045;-40
2022/06/12 09:07:49;;;;;;;1.52;1.08;;;;;;;;;;5031017;28;20116;-39
2022/06/12 09:10:21;;;;;;;1.90;1.05;;;;;;;;;;5031169;28;20030;-39
2022/06/12 09:12:55;;;;;;;0.80;0.70;;;;;;;;;;5031131;28;20029;-39
2022/06/12 09:15:41;;;;;;;1.30;0.77;;;;;;;;;;5031056;28;20037;-39
2022/06/12 09:18:34;;;;;;;1.17;0.65;;;;;;;;;;5031251;28;20049;-40
2022/06/12 09:21:11;;;;;;;1.45;0.90;;;;;;;;;;5028072;28;20507;-40
2022/06/12 09:23:49;;;;;;;0.75;0.70;;;;;;;;;;5030812;28;20071;-39
2022/06/12 09:26:27;;;;;;;1.13;1.02;;;;;;;;;;5030945;28;20503;-39
2022/06/12 09:29:07;;;;;;;0.90;0.80;;;;;;;;;;5030887;28;20022;-40
2022/06/12 09:31:52;;;;;;;0.98;0.80;;;;;;;;;;5030870;28;20063;-39
2022/06/12 09:34:20;;;;;;;0.70;0.70;;;;;;;;;;5030857;28;20037;-39
2022/06/12 09:36:54;;;;;;;1.98;1.30;;;;;;;;;;5030784;28;20045;-39
2022/06/12 09:39:32;;;;;;;1.13;0.50;;;;;;;;;;5030744;28;20057;-39
2022/06/12 09:41:57;;;;;;;0.52;0.52;;;;;;;;;;5030801;28;20095;-40
2022/06/12 09:44:38;;;;;;;0.93;0.63;;;;;;;;;;5030674;28;20029;-39
2022/06/12 09:47:18;;;;;;;0.82;0.70;;;;;;;;;;5031059;28;20029;-39
2022/06/12 09:49:57;;;;;;;0.75;0.75;;;;;;;;;;5034428;28;20121;-39
2022/06/12 09:52:52;;;;;;;0.60;0.60;;;;;;;;;;5034341;28;20720;-39
2022/06/12 09:55:27;;;;;;;1.13;0.60;;;;;;;;;;5021215;28;20048;-39
2022/06/12 09:58:04;;;;;;;0.70;0.70;;;;;;;;;;5034223;28;20128;-39
2022/06/12 10:00:42;;;;;;;0.88;0.60;;;;;;;;;;5034148;28;20063;-40
2022/06/12 10:03:16;;;;;;;1.40;0.90;;;;;;;;;;5034369;28;20099;-39
2022/06/12 10:06:03;;;;;;;0.65;0.65;;;;;;;;;;5034366;28;20400;-39
2022/06/12 10:08:34;;;;;;;0.63;0.60;;;;;;;;;;5033939;28;20159;-40
2022/06/12 10:11:05;;;;;;;1.30;1.20;;;;;;;;;;5034076;28;20079;-39
2022/06/12 10:13:53;;;;;;;0.73;0.73;;;;;;;;;;5033855;28;20041;-39
2022/06/12 10:16:20;;;;;;;4.10;0.80;;;;;;;;;;5016311;28;20025;-40
2022/06/12 10:18:52;;;;;;;0.80;0.60;;;;;;;;;;5033866;28;20095;-40
2022/06/12 10:21:21;;;;;;;0.70;0.70;;;;;;;;;;5034252;28;20033;-41
2022/06/12 10:23:47;;;;;;;3.42;0.85;;;;;;;;;;5033901;28;20025;-40
2022/06/12 10:26:16;;;;;;;1.52;0.90;;;;;;;;;;5034048;28;20090;-40
2022/06/12 10:28:41;;;;;;;0.70;0.70;;;;;;;;;;5033945;28;20048;-39
2022/06/12 10:31:10;;;;;;;1.90;1.08;;;;;;;;;;5033960;28;20468;-39
2022/06/12 10:33:41;;;;;;;1.50;0.77;;;;;;;;;;5033796;28;20045;-40
2022/06/12 10:36:21;;;;;;;1.35;1.00;;;;;;;;;;5033591;28;20116;-39
2022/06/12 10:38:47;;;;;;;0.98;0.88;;;;;;;;;;5033332;28;20045;-40
2022/06/12 10:41:24;;;;;;;4.63;1.13;;;;;;;;;;5033755;28;20028;-39
2022/06/12 10:43:50;;;;;;;5.45;0.90;;;;;;;;;;5033667;28;20030;-39
2022/06/12 10:46:36;;;;;;;2.40;1.02;;;;;;;;;;5033401;28;20028;-39
2022/06/12 10:49:02;;;;;;;0.98;0.77;;;;;;;;;;5032977;28;20124;-41
2022/06/12 10:51:30;;;;;;;0.88;0.88;;;;;;;;;;5033605;28;20566;-39
2022/06/12 10:54:05;;;;;;;1.88;0.90;;;;;;;;;;5033502;28;20422;-39
2022/06/12 10:56:42;;;;;;;1.33;0.80;;;;;;;;;;5033164;28;20172;-39
2022/06/12 10:59:28;;;;;;;1.38;1.05;;;;;;;;;;5032164;28;20052;-40
2022/06/12 11:02:04;;;;;;;2.20;0.73;;;;;;;;;;5032705;28;20037;-40
2022/06/12 11:04:37;;;;;;;1.23;1.00;;;;;;;;;;5032880;28;20139;-39
2022/06/12 11:07:21;;;;;;;1.70;1.00;;;;;;;;;;5033037;28;20685;-39
2022/06/12 11:09:52;;;;;;;0.68;0.55;;;;;;;;;;5032985;28;20032;-39
2022/06/12 11:12:32;;;;;;;1.10;0.98;;;;;;;;;;5033006;28;20509;-39
2022/06/12 11:15:01;;;;;;;1.08;1.00;;;;;;;;;;5031557;28;20387;-40
2022/06/12 11:17:36;;;;;;;1.00;0.90;;;;;;;;;;5032745;28;20065;-39
2022/06/12 11:20:22;;;;;;;1.20;1.08;;;;;;;;;;5032849;28;20025;-39
2022/06/12 11:22:48;;;;;;;1.10;1.00;;;;;;;;;;5032609;28;20103;-40
2022/06/12 11:25:20;;;;;;;1.15;1.05;;;;;;;;;;5032693;28;20467;-39
2022/06/12 11:28:12;;;;;;;1.58;1.02;;;;;;;;;;5032570;28;20053;-39
2022/06/12 11:30:39;;;;;;;1.25;1.02;;;;;;;;;;5032506;28;20476;-39
2022/06/12 11:33:07;;;;;;;1.25;1.10;;;;;;;;;;5032596;28;20080;-40
2022/06/12 11:35:57;;;;;;;1.30;1.20;;;;;;;;;;5032657;28;20037;-39
2022/06/12 11:38:42;;;;;;;1.40;1.30;;;;;;;;;;5032431;28;20044;-40
2022/06/12 11:41:07;;;;;;;0.98;0.90;;;;;;;;;;5032347;28;20044;-39
2022/06/12 11:43:38;;;;;;;0.98;0.82;;;;;;;;;;5032185;28;20015;-39
2022/06/12 11:46:10;;;;;;;1.27;1.17;;;;;;;;;;5032516;28;20033;-39
2022/06/12 11:48:46;;;;;;;1.42;1.17;;;;;;;;;;5032172;28;20025;-39
2022/06/12 11:51:30;;;;;;;1.10;1.00;;;;;;;;;;5032094;28;20391;-39
2022/06/12 11:53:56;;;;;;;2.17;1.00;;;;;;;;;;5032165;28;20156;-39
2022/06/12 11:56:33;;;;;;;2.15;1.08;;;;;;;;;;5032082;28;20120;-40
2022/06/12 11:59:06;;;;;;;1.95;1.30;;;;;;;;;;5031940;28;20514;-39
2022/06/12 12:01:38;;;;;;;2.47;1.20;;;;;;;;;;5032211;28;20071;-39
2022/06/12 12:04:22;;;;;;;1.55;1.33;;;;;;;;;;5031700;28;20049;-39
2022/06/12 12:07:12;;;;;;;3.65;1.10;;;;;;;;;;5031920;28;20120;-40
2022/06/12 12:10:00;;;;;;;1.52;1.42;;;;;;;;;;5025254;28;20407;-39
2022/06/12 12:12:30;;;;;;;1.25;1.15;;;;;;;;;;5031856;28;20045;-39
2022/06/12 12:14:58;;;;;;;1.38;1.23;;;;;;;;;;5031787;28;20048;-40
2022/06/12 12:17:27;;;;;;;2.20;1.17;;;;;;;;;;5031655;28;20068;-39
2022/06/12 12:20:00;;;;;;;0.85;0.85;;;;;;;;;;5031710;28;20035;-39
2022/06/12 12:22:41;;;;;;;1.70;1.48;;;;;;;;;;5031529;28;20038;-39
2022/06/12 12:25:07;;;;;;;3.17;1.10;;;;;;;;;;5031886;28;20036;-40
2022/06/12 12:27:35;;;;;;;1.52;1.15;;;;;;;;;;5031433;28;20029;-39
2022/06/12 12:30:02;;;;;;;1.88;1.58;;;;;;;;;;5031891;28;20049;-39
2022/06/12 12:32:31;;;;;;;1.55;1.38;;;;;;;;;;5031394;28;20147;-39
2022/06/12 12:34:57;;;;;;;2.03;1.48;;;;;;;;;;5031701;28;20029;-40
2022/06/12 12:43:11;;;;;;;1.67;1.13;;;;;;;;;;5031685;28;20033;-40
2022/06/12 12:45:37;;;;;;;3.50;1.50;;;;;;;;;;5031273;28;20095;-39
2022/06/12 12:48:07;;;;;;;1.30;1.20;;;;;;;;;;5031241;28;20068;-39
2022/06/12 12:50:43;;;;;;;2.63;1.52;;;;;;;;;;5031467;28;20034;-39
2022/06/12 12:53:18;;;;;;;1.25;1.15;;;;;;;;;;5031170;28;20026;-39
2022/06/12 12:55:43;;;;;;;1.58;1.10;;;;;;;;;;5031491;28;20033;-40
2022/06/12 12:58:20;;;;;;;4.40;1.50;;;;;;;;;;5031121;28;20534;-39
2022/06/12 13:00:46;;;;;;;1.45;1.13;;;;;;;;;;5031474;28;20028;-39
2022/06/12 13:03:30;;;;;;;1.60;1.45;;;;;;;;;;5031457;28;20029;-40
2022/06/12 13:05:59;;;;;;;2.17;1.60;;;;;;;;;;5031224;28;20492;-39
2022/06/12 13:08:33;;;;;;;4.72;1.73;;;;;;;;;;5031116;28;20041;-40
2022/06/12 13:11:03;;;;;;;1.63;1.42;;;;;;;;;;5031193;28;20038;-40
2022/06/12 13:13:38;;;;;;;2.85;2.13;;;;;;;;;;5031009;28;20036;-40
2022/06/12 13:16:16;;;;;;;7.53;1.50;;;;;;;;;;5031074;28;20044;-39
2022/06/12 13:18:42;;;;;;;1.33;1.23;;;;;;;;;;5030996;28;20145;-40
2022/06/12 13:21:07;;;;;;;3.97;1.48;;;;;;;;;;5031130;28;20020;-39
2022/06/12 13:23:39;;;;;;;1.65;1.48;;;;;;;;;;5033249;28;20322;-39
2022/06/12 13:26:07;;;;;;;1.65;1.10;;;;;;;;;;5034978;28;20041;-39
2022/06/12 13:28:34;;;;;;;2.50;1.55;;;;;;;;;;5017186;28;20476;-39
2022/06/12 13:31:01;;;;;;;2.60;1.58;;;;;;;;;;5017106;28;20385;-40
2022/06/12 13:33:38;;;;;;;2.25;1.75;;;;;;;;;;5034694;28;20387;-39
2022/06/12 13:36:09;;;;;;;2.65;1.90;;;;;;;;;;5035004;28;20104;-39
2022/06/12 13:38:52;;;;;;;1.55;1.45;;;;;;;;;;5034792;28;20456;-40
2022/06/12 13:41:36;;;;;;;1.88;1.77;;;;;;;;;;5034755;28;20538;-39
2022/06/12 13:44:22;;;;;;;1.58;1.48;;;;;;;;;;5034490;28;20033;-40
2022/06/12 13:46:48;;;;;;;1.70;1.40;;;;;;;;;;5034508;28;20026;-40
2022/06/12 13:49:32;;;;;;;2.30;1.90;;;;;;;;;;5034840;28;20044;-39
2022/06/12 13:52:00;;;;;;;2.00;1.65;;;;;;;;;;5034464;28;20044;-40
2022/06/12 13:54:27;;;;;;;2.15;1.70;;;;;;;;;;5034372;28;20471;-39
2022/06/12 13:56:55;;;;;;;1.70;1.60;;;;;;;;;;5034437;28;20486;-40
2022/06/12 13:59:25;;;;;;;2.35;1.50;;;;;;;;;;5034371;28;20041;-40
2022/06/12 14:01:51;;;;;;;2.00;1.90;;;;;;;;;;5034245;28;20017;-39
2022/06/12 14:04:20;;;;;;;2.05;1.73;;;;;;;;;;5033979;28;20073;-39
2022/06/12 14:06:45;;;;;;;1.95;1.77;;;;;;;;;;5034063;28;20208;-40
2022/06/12 14:09:17;;;;;;;1.90;1.70;;;;;;;;;;5034094;28;20036;-40
2022/06/12 14:11:43;;;;;;;3.28;2.03;;;;;;;;;;5033975;28;20026;-39
2022/06/12 14:14:24;;;;;;;2.05;1.77;;;;;;;;;;5033979;28;20532;-39
2022/06/12 14:16:52;;;;;;;3.35;1.73;;;;;;;;;;5034180;28;20514;-40
2022/06/12 14:19:24;;;;;;;2.00;1.80;;;;;;;;;;5033833;28;20048;-40
2022/06/12 14:21:58;;;;;;;2.55;2.10;;;;;;;;;;5033840;28;20041;-40
2022/06/12 14:24:29;;;;;;;2.03;1.88;;;;;;;;;;5033814;28;20036;-40
2022/06/12 14:26:55;;;;;;;2.08;1.88;;;;;;;;;;5033733;28;20056;-39
2022/06/12 14:29:36;;;;;;;2.25;2.05;;;;;;;;;;5034025;28;20535;-40
2022/06/12 14:32:11;;;;;;;2.97;2.10;;;;;;;;;;5033802;28;20566;-39
2022/06/12 14:34:43;;;;;;;2.03;1.75;;;;;;;;;;5033336;28;20029;-40
2022/06/12 14:37:26;;;;;;;1.60;1.50;;;;;;;;;;5033618;28;20167;-40
2022/06/12 14:39:52;;;;;;;3.28;2.00;;;;;;;;;;5033551;28;20515;-40
2022/06/12 14:42:18;;;;;;;2.20;2.00;;;;;;;;;;5033565;28;20037;-40
2022/06/12 14:44:44;;;;;;;4.80;1.95;;;;;;;;;;5033391;28;20590;-39
2022/06/12 14:47:13;;;;;;;2.10;1.90;;;;;;;;;;5033384;28;20104;-40
2022/06/12 14:49:39;;;;;;;1.88;1.65;;;;;;;;;;5033650;28;20621;-40
2022/06/12 14:52:04;;;;;;;2.30;2.10;;;;;;;;;;5033401;28;20056;-39
2022/06/12 14:54:30;;;;;;;2.58;2.05;;;;;;;;;;5033197;28;20381;-40
2022/06/12 14:56:55;;;;;;;2.80;1.80;;;;;;;;;;5033516;28;20379;-40
2022/06/12 14:59:23;;;;;;;2.95;2.65;;;;;;;;;;5033473;28;20120;-40
2022/06/12 15:01:49;;;;;;;3.67;2.08;;;;;;;;;;5033027;28;20112;-40
2022/06/12 15:04:15;;;;;;;2.45;2.20;;;;;;;;;;5032919;28;20176;-40
2022/06/12 15:06:41;;;;;;;2.20;1.88;;;;;;;;;;5033078;28;20040;-39
2022/06/12 15:09:07;;;;;;;1.80;1.70;;;;;;;;;;5033255;28;20420;-40
2022/06/12 15:11:33;;;;;;;3.13;2.15;;;;;;;;;;5032832;28;20064;-39
2022/06/12 15:13:59;;;;;;;3.05;2.33;;;;;;;;;;5032929;28;20496;-40
2022/06/12 15:16:25;;;;;;;5.13;1.75;;;;;;;;;;5032838;28;20025;-39
2022/06/12 15:18:51;;;;;;;7.50;2.40;;;;;;;;;;5032666;28;20479;-40
2022/06/12 15:21:29;;;;;;;2.13;1.90;;;;;;;;;;5032834;28;20131;-40
2022/06/12 15:23:55;;;;;;;6.05;2.22;;;;;;;;;;5033003;28;20032;-40